createdAt,value
2023-01-22T00:01:10.050Z,9.60
2023-01-22T00:03:37.312Z,10.70
2023-01-22T00:06:04.987Z,10.10
2023-01-22T00:08:32.659Z,8.90
2023-01-22T00:10:59.665Z,8.30
2023-01-22T00:13:27.314Z,8.80
2023-01-22T00:15:54.606Z,8.00
2023-01-22T00:18:21.561Z,9.50
2023-01-22T00:20:49.500Z,9.20
2023-01-22T00:23:16.796Z,9.30
2023-01-22T00:25:44.140Z,10.30
2023-01-22T00:28:11.552Z,23.20
2023-01-22T00:30:38.885Z,9.90
2023-01-22T00:33:05.958Z,8.60
2023-01-22T00:35:34.428Z,9.20
2023-01-22T00:38:03.864Z,7.90
2023-01-22T00:40:32.419Z,8.80
2023-01-22T00:42:59.296Z,9.90
2023-01-22T00:45:29.000Z,9.00
2023-01-22T00:47:56.190Z,9.40
2023-01-22T00:50:23.098Z,10.20
2023-01-22T00:52:50.142Z,8.40
2023-01-22T00:55:17.175Z,9.10
2023-01-22T00:57:44.095Z,10.60
2023-01-22T01:00:11.684Z,8.20
2023-01-22T01:02:58.824Z,9.80
2023-01-22T01:05:25.834Z,11.60
2023-01-22T01:07:53.153Z,9.90
2023-01-22T01:10:20.412Z,9.30
2023-01-22T01:12:47.600Z,9.90
2023-01-22T01:15:14.410Z,9.00
2023-01-22T01:17:41.829Z,8.40
2023-01-22T01:20:09.721Z,10.40
2023-01-22T01:22:38.250Z,10.10
2023-01-22T01:25:05.402Z,13.20
2023-01-22T01:27:32.871Z,15.80
2023-01-22T01:29:59.715Z,13.30
2023-01-22T01:32:26.799Z,15.00
2023-01-22T01:34:53.816Z,15.60
2023-01-22T01:37:21.096Z,10.80
2023-01-22T01:39:52.637Z,14.30
2023-01-22T01:48:40.826Z,12.30
2023-01-22T01:51:09.293Z,10.80
2023-01-22T01:53:36.707Z,9.30
2023-01-22T01:56:05.506Z,9.00
2023-01-22T01:58:34.226Z,9.10
2023-01-22T02:01:05.203Z,8.00
2023-01-22T02:03:32.163Z,7.30
2023-01-22T02:05:59.072Z,7.90
2023-01-22T02:08:25.975Z,6.30
2023-01-22T02:10:53.606Z,8.90
2023-01-22T02:13:24.736Z,9.90
2023-01-22T02:15:51.663Z,9.00
2023-01-22T02:18:19.960Z,8.10
2023-01-22T02:20:57.014Z,8.80
2023-01-22T02:23:24.505Z,6.80
2023-01-22T02:25:51.822Z,6.30
2023-01-22T02:28:19.143Z,7.70
2023-01-22T02:30:46.783Z,6.50
2023-01-22T02:33:15.034Z,7.60
2023-01-22T02:35:42.941Z,8.30
2023-01-22T02:38:09.912Z,8.60
2023-01-22T02:40:49.038Z,7.20
2023-01-22T02:43:18.574Z,8.80
2023-01-22T02:45:45.832Z,7.90
2023-01-22T02:48:13.219Z,6.70
2023-01-22T02:50:40.144Z,6.60
2023-01-22T02:53:07.974Z,6.20
2023-01-22T02:55:34.851Z,7.40
2023-01-22T02:58:01.752Z,7.00
2023-01-22T03:00:28.660Z,6.80
2023-01-22T03:02:55.922Z,6.70
2023-01-22T03:05:23.419Z,6.70
2023-01-22T03:07:50.353Z,6.50
2023-01-22T03:10:19.578Z,6.10
2023-01-22T03:15:52.080Z,5.60
2023-01-22T03:18:37.705Z,5.90
2023-01-22T03:21:16.839Z,5.40
2023-01-22T03:23:49.867Z,6.70
2023-01-22T03:26:18.985Z,6.90
2023-01-22T03:28:46.210Z,7.60
2023-01-22T03:31:17.378Z,5.60
2023-01-22T03:33:44.513Z,5.10
2023-01-22T03:36:13.180Z,4.80
2023-01-22T03:38:45.206Z,5.80
2023-01-22T03:41:16.971Z,5.40
2023-01-22T03:46:17.082Z,5.30
2023-01-22T03:48:45.769Z,5.60
2023-01-22T03:51:14.947Z,5.70
2023-01-22T03:53:42.928Z,5.80
2023-01-22T03:56:16.645Z,5.40
2023-01-22T03:58:43.698Z,5.10
2023-01-22T04:01:13.309Z,5.80
2023-01-22T04:03:40.211Z,5.40
2023-01-22T04:06:09.230Z,5.00
2023-01-22T04:08:37.706Z,5.60
2023-01-22T04:11:05.245Z,4.50
2023-01-22T04:13:33.036Z,5.30
2023-01-22T04:16:00.277Z,5.90
2023-01-22T04:18:50.723Z,5.60
2023-01-22T04:21:36.387Z,5.00
2023-01-22T04:24:05.894Z,5.30
2023-01-22T04:26:33.429Z,5.30
2023-01-22T04:29:02.220Z,4.70
2023-01-22T04:31:29.708Z,5.20
2023-01-22T04:34:07.985Z,4.60
2023-01-22T04:36:41.659Z,4.80
2023-01-22T04:39:08.410Z,6.40
2023-01-22T04:41:35.443Z,6.50
2023-01-22T04:44:02.328Z,6.70
2023-01-22T04:46:32.414Z,7.30
2023-01-22T04:48:59.257Z,7.10
2023-01-22T04:51:26.444Z,6.40
2023-01-22T04:53:53.987Z,6.20
2023-01-22T04:56:20.875Z,5.90
2023-01-22T04:58:49.717Z,5.80
2023-01-22T05:01:16.653Z,6.00
2023-01-22T05:03:44.257Z,4.50
2023-01-22T05:06:11.186Z,5.30
2023-01-22T05:08:38.896Z,5.80
2023-01-22T05:11:07.897Z,6.70
2023-01-22T05:13:42.098Z,5.20
2023-01-22T05:16:08.918Z,5.50
2023-01-22T05:18:36.300Z,6.60
2023-01-22T05:21:03.550Z,6.90
2023-01-22T05:23:31.614Z,6.50
2023-01-22T05:25:58.458Z,5.90
2023-01-22T05:28:43.760Z,5.70
2023-01-22T05:31:18.954Z,6.00
2023-01-22T05:34:05.993Z,6.00
2023-01-22T05:36:32.845Z,6.60
2023-01-22T05:39:04.808Z,7.50
2023-01-22T05:41:31.902Z,7.60
2023-01-22T05:44:03.073Z,6.60
2023-01-22T05:46:30.039Z,6.90
2023-01-22T05:49:11.133Z,6.40
2023-01-22T05:51:39.663Z,6.70
2023-01-22T05:54:06.778Z,6.10
2023-01-22T05:59:03.069Z,5.90
2023-01-22T06:01:30.306Z,5.40
2023-01-22T06:03:58.731Z,5.40
2023-01-22T06:06:25.985Z,5.30
2023-01-22T06:08:53.026Z,4.90
2023-01-22T06:11:21.795Z,5.10
2023-01-22T06:13:49.017Z,5.60
2023-01-22T06:16:17.512Z,5.80
2023-01-22T06:18:56.390Z,5.40
2023-01-22T06:21:24.777Z,5.90
2023-01-22T06:23:52.580Z,5.50
2023-01-22T06:26:19.910Z,6.30
2023-01-22T06:28:46.725Z,5.50
2023-01-22T06:31:13.866Z,6.10
2023-01-22T06:33:41.642Z,5.90
2023-01-22T06:36:08.824Z,4.80
2023-01-22T06:38:36.655Z,4.50
2023-01-22T06:41:04.354Z,4.40
2023-01-22T06:43:33.169Z,5.40
2023-01-22T06:46:00.091Z,6.00
2023-01-22T06:48:43.850Z,6.20
2023-01-22T06:51:11.531Z,5.50
2023-01-22T06:53:39.010Z,6.90
2023-01-22T06:56:06.417Z,8.00
2023-01-22T06:58:34.624Z,7.30
2023-01-22T07:01:02.191Z,7.70
2023-01-22T07:03:29.681Z,6.30
2023-01-22T07:06:00.850Z,6.30
2023-01-22T07:08:28.540Z,5.90
2023-01-22T07:10:55.613Z,5.40
2023-01-22T07:13:22.492Z,4.90
2023-01-22T07:15:49.300Z,5.50
2023-01-22T07:18:19.732Z,7.20
2023-01-22T07:20:47.327Z,6.30
2023-01-22T07:23:14.338Z,5.60
2023-01-22T07:25:41.416Z,5.40
2023-01-22T07:28:08.568Z,5.80
2023-01-22T07:30:36.116Z,7.90
2023-01-22T07:33:03.330Z,9.50
2023-01-22T07:35:30.652Z,11.80
2023-01-22T07:37:58.653Z,8.80
2023-01-22T07:40:26.064Z,6.60
2023-01-22T07:42:53.349Z,7.80
2023-01-22T07:45:24.553Z,15.20
2023-01-22T07:47:55.037Z,13.80
2023-01-22T07:50:22.738Z,13.70
2023-01-22T07:52:50.288Z,7.10
2023-01-22T07:55:17.596Z,6.00
2023-01-22T07:57:44.384Z,5.40
2023-01-22T08:00:11.762Z,5.20
2023-01-22T08:02:45.112Z,5.70
2023-01-22T08:05:13.232Z,4.60
2023-01-22T08:07:39.988Z,4.00
2023-01-22T08:10:08.326Z,4.20
2023-01-22T08:12:37.192Z,3.60
2023-01-22T08:15:04.347Z,3.50
2023-01-22T08:17:31.601Z,4.10
2023-01-22T08:19:58.321Z,5.40
2023-01-22T08:22:25.581Z,4.50
2023-01-22T08:24:54.203Z,4.00
2023-01-22T08:27:21.610Z,4.90
2023-01-22T08:29:49.963Z,4.90
2023-01-22T08:32:17.285Z,5.40
2023-01-22T08:34:44.082Z,7.30
2023-01-22T08:37:11.286Z,5.20
2023-01-22T08:39:38.360Z,5.40
2023-01-22T08:42:05.324Z,5.00
2023-01-22T08:44:32.143Z,5.80
2023-01-22T08:46:59.076Z,4.50
2023-01-22T08:49:26.548Z,6.90
2023-01-22T08:51:53.689Z,6.30
2023-01-22T08:54:21.097Z,6.50
2023-01-22T08:56:48.139Z,5.40
2023-01-22T08:59:15.716Z,4.80
2023-01-22T09:01:42.677Z,4.90
2023-01-22T09:04:09.946Z,4.70
2023-01-22T09:06:46.565Z,5.20
2023-01-22T09:09:13.764Z,4.60
2023-01-22T09:11:40.902Z,2.90
2023-01-22T09:14:09.901Z,2.70
2023-01-22T09:16:37.360Z,2.90
2023-01-22T09:19:05.348Z,3.20
2023-01-22T09:21:33.903Z,3.30
2023-01-22T09:24:01.083Z,3.80
2023-01-22T09:26:28.571Z,3.50
2023-01-22T09:28:55.763Z,4.40
2023-01-22T09:31:22.852Z,10.10
2023-01-22T09:33:51.242Z,4.30
2023-01-22T09:36:18.589Z,4.50
2023-01-22T09:38:45.745Z,4.60
2023-01-22T09:41:20.434Z,4.30
2023-01-22T09:43:51.425Z,4.00
2023-01-22T09:46:30.795Z,3.60
2023-01-22T09:49:08.296Z,3.40
2023-01-22T12:03:50.752Z,9.10
2023-01-22T12:06:22.975Z,8.90
2023-01-22T12:08:53.491Z,9.40
2023-01-22T12:11:58.922Z,10.80
2023-01-22T12:14:37.872Z,9.50
2023-01-22T12:17:21.271Z,14.30
2023-01-22T12:19:51.563Z,14.80
2023-01-22T12:22:28.691Z,10.20
2023-01-22T12:25:12.300Z,15.70
2023-01-22T12:27:41.966Z,11.70
2023-01-22T12:30:27.412Z,15.00
2023-01-22T12:32:59.577Z,10.00
2023-01-22T12:35:29.174Z,9.30
2023-01-22T12:40:37.810Z,9.30
2023-01-22T12:45:53.493Z,9.90
2023-01-22T12:48:31.621Z,10.10
2023-01-22T12:50:58.186Z,10.40
2023-01-22T12:53:33.915Z,9.70
2023-01-22T12:56:04.957Z,9.60
2023-01-22T12:58:36.079Z,7.50
2023-01-22T13:01:06.893Z,7.60
2023-01-22T13:03:33.631Z,8.10
2023-01-22T13:06:02.084Z,7.70
2023-01-22T13:08:42.297Z,8.20
2023-01-22T13:11:13.561Z,8.40
2023-01-22T13:13:45.209Z,7.90
2023-01-22T13:16:14.369Z,7.50
2023-01-22T13:21:09.295Z,8.60
2023-01-22T13:23:46.941Z,10.00
2023-01-22T13:26:19.056Z,11.10
2023-01-22T13:28:59.729Z,11.00
2023-01-22T13:31:26.134Z,9.90
2023-01-22T13:34:08.299Z,10.50
2023-01-22T13:36:38.935Z,12.80
2023-01-22T13:39:05.323Z,13.00
2023-01-22T13:41:36.050Z,11.30
2023-01-22T13:44:03.628Z,10.40
2023-01-22T13:46:31.383Z,10.70
2023-01-22T13:49:05.039Z,11.00
2023-01-22T13:51:32.654Z,9.90
2023-01-22T13:53:58.751Z,9.30
2023-01-22T13:56:26.245Z,8.20
2023-01-22T13:58:52.483Z,7.90
2023-01-22T14:01:29.894Z,10.40
2023-01-22T14:04:03.378Z,31.40
2023-01-22T14:06:29.983Z,14.50
2023-01-22T14:08:56.901Z,8.90
2023-01-22T14:11:23.204Z,7.90
2023-01-22T14:13:51.215Z,8.50
2023-01-22T14:16:17.610Z,8.80
2023-01-22T14:18:47.128Z,11.20
2023-01-22T14:21:13.360Z,10.30
2023-01-22T14:23:39.575Z,10.10
2023-01-22T14:26:06.679Z,9.80
2023-01-22T14:28:34.449Z,9.80
2023-01-22T14:31:00.888Z,10.10
2023-01-22T14:33:29.855Z,10.40
2023-01-22T14:35:56.170Z,10.20
2023-01-22T14:38:22.622Z,9.60
2023-01-22T14:40:48.958Z,8.40
2023-01-22T14:43:15.515Z,7.60
2023-01-22T14:45:43.256Z,8.70
2023-01-22T14:48:13.392Z,8.30
2023-01-22T14:50:40.014Z,9.70
2023-01-22T14:53:06.835Z,9.60
2023-01-22T14:55:33.334Z,9.10
2023-01-22T14:57:59.506Z,8.60
2023-01-22T15:00:27.213Z,10.20
2023-01-22T15:02:55.052Z,8.60
2023-01-22T15:05:24.537Z,7.90
2023-01-22T15:07:50.933Z,8.70
2023-01-22T15:10:17.926Z,9.40
2023-01-22T15:12:48.562Z,9.90
2023-01-22T15:15:15.609Z,9.70
2023-01-22T15:17:41.979Z,9.00
2023-01-22T15:20:09.268Z,8.30
2023-01-22T15:22:35.733Z,6.90
2023-01-22T15:25:01.983Z,7.60
2023-01-22T15:27:28.665Z,7.90
2023-01-22T15:29:55.438Z,9.30
2023-01-22T15:32:22.739Z,11.40
2023-01-22T15:34:49.073Z,10.60
2023-01-22T15:37:15.553Z,9.10
2023-01-22T15:39:43.082Z,9.40
2023-01-22T15:42:09.247Z,9.40
2023-01-22T15:44:36.991Z,8.30
2023-01-22T15:47:04.346Z,9.00
2023-01-22T15:49:30.727Z,9.20
2023-01-22T15:51:57.280Z,9.00
2023-01-22T15:54:25.775Z,9.60
2023-01-22T15:56:52.313Z,9.50
2023-01-22T15:59:18.879Z,8.70
2023-01-22T16:01:45.149Z,9.50
2023-01-22T16:04:11.315Z,9.70
2023-01-22T16:06:38.721Z,9.30
2023-01-22T16:09:06.901Z,9.00
2023-01-22T16:11:33.640Z,9.40
2023-01-22T16:14:02.919Z,10.80
2023-01-22T16:16:35.757Z,9.80
2023-01-22T16:19:03.174Z,10.40
2023-01-22T16:21:30.252Z,9.10
2023-01-22T16:23:58.160Z,9.80
2023-01-22T16:26:29.018Z,9.10
2023-01-22T16:28:56.453Z,10.60
2023-01-22T16:31:25.317Z,9.10
2023-01-22T16:33:56.211Z,8.40
2023-01-22T16:36:23.462Z,8.50
2023-01-22T16:38:50.254Z,7.80
2023-01-22T16:41:30.072Z,8.60
2023-01-22T16:44:09.049Z,8.40
2023-01-22T16:46:39.774Z,7.20
2023-01-22T16:49:07.996Z,8.10
2023-01-22T16:51:39.927Z,9.40
2023-01-22T16:54:06.415Z,7.90
2023-01-22T16:56:33.040Z,7.90
2023-01-22T16:58:59.322Z,9.30
2023-01-22T17:01:25.649Z,10.70
2023-01-22T17:03:51.918Z,8.60
2023-01-22T17:06:23.424Z,10.10
2023-01-22T17:08:50.605Z,11.20
2023-01-22T17:11:16.878Z,10.90
2023-01-22T17:13:43.010Z,7.60
2023-01-22T17:16:09.874Z,7.80
2023-01-22T17:18:36.528Z,8.40
2023-01-22T17:21:06.868Z,7.40
2023-01-22T17:23:33.973Z,7.60
2023-01-22T17:26:04.859Z,8.50
2023-01-22T17:28:35.061Z,8.20
2023-01-22T17:31:04.506Z,8.20
2023-01-22T17:33:30.586Z,8.00
2023-01-22T17:35:58.907Z,7.10
2023-01-22T17:38:28.459Z,7.30
2023-01-22T17:40:56.214Z,9.50
2023-01-22T17:43:23.428Z,8.70
2023-01-22T17:45:50.267Z,9.70
2023-01-22T17:48:16.711Z,8.40
2023-01-22T17:50:44.742Z,9.70
2023-01-22T17:53:11.441Z,8.20
2023-01-22T21:05:38.191Z,5.40
2023-01-22T21:08:05.038Z,5.30
2023-01-22T21:10:32.493Z,4.50
2023-01-22T21:12:59.452Z,4.50
2023-01-22T21:15:25.969Z,3.50
2023-01-22T21:17:54.146Z,3.90
2023-01-22T21:20:20.876Z,3.40
2023-01-22T21:22:48.140Z,3.90
2023-01-22T21:25:14.401Z,5.00
2023-01-22T21:27:41.085Z,5.00
2023-01-22T21:30:08.263Z,6.30
2023-01-22T21:32:35.633Z,5.90
2023-01-22T21:35:02.121Z,5.90
2023-01-22T21:37:29.085Z,4.50
2023-01-22T21:39:55.441Z,3.30
2023-01-22T21:42:40.645Z,3.40
2023-01-22T21:45:27.202Z,3.40
2023-01-22T21:47:53.756Z,3.80
2023-01-22T21:56:18.588Z,3.90
2023-01-22T21:58:45.649Z,3.40
2023-01-22T22:01:19.492Z,3.50
2023-01-22T22:03:46.573Z,3.80
2023-01-22T22:06:13.453Z,3.70
2023-01-22T22:08:43.461Z,5.10
2023-01-22T22:11:12.957Z,4.90
2023-01-22T22:13:41.097Z,5.10
2023-01-22T22:16:08.551Z,4.20
2023-01-22T22:18:36.112Z,4.30
2023-01-22T22:28:44.644Z,5.40
2023-01-22T22:31:13.539Z,10.80
2023-01-22T22:33:44.755Z,7.80
2023-01-22T22:36:13.345Z,4.30
2023-01-22T22:38:40.471Z,3.70
2023-01-22T22:41:10.941Z,3.70
2023-01-22T22:43:39.879Z,3.50
2023-01-22T22:46:08.747Z,2.50
2023-01-22T22:48:36.066Z,2.90
2023-01-22T22:51:13.341Z,2.80
2023-01-22T22:53:40.849Z,3.90
2023-01-22T22:56:08.783Z,4.20
2023-01-22T22:58:35.772Z,9.30
2023-01-22T23:01:12.049Z,15.00
2023-01-22T23:03:39.803Z,10.20
2023-01-22T23:06:10.430Z,11.70
2023-01-22T23:08:38.926Z,13.30
2023-01-22T23:11:07.342Z,9.80
2023-01-22T23:13:34.754Z,4.30
2023-01-22T23:16:07.143Z,4.40
2023-01-22T23:18:34.630Z,5.40
2023-01-22T23:21:08.457Z,4.80
2023-01-22T23:23:35.698Z,12.80
2023-01-22T23:26:03.155Z,10.50
2023-01-22T23:28:30.022Z,5.40
2023-01-22T23:31:04.811Z,4.50
2023-01-22T23:33:32.034Z,4.10
2023-01-22T23:36:13.172Z,3.20
2023-01-22T23:38:40.233Z,7.50
2023-01-22T23:41:09.001Z,8.50
2023-01-22T23:43:37.356Z,6.70
2023-01-22T23:46:11.640Z,4.90
2023-01-22T23:48:39.045Z,3.50
2023-01-22T23:51:10.050Z,4.60
2023-01-22T23:53:40.256Z,6.40
2023-01-22T23:56:08.101Z,4.50
2023-01-22T23:58:35.130Z,4.30
